Time;durP1;ratioP1;P1;durP2;ratioP2;P2;SDS_P1;SDS_P2;PMS_P1;PMS_P2;Temp;Humidity;BMP_temperature;BMP_pressure;BME280_temperature;BME280_humidity;BME280_pressure;Samples;Min_cycle;Max_cycle;Signal;HPM_P1;HPM_P2
2022/08/30 00:01:42;;;;;;;4.00;2.90;;;17.20;99.90;;;;;;4137581;28;20196;-75
2022/08/30 00:03:46;;;;;;;5.30;3.20;;;17.10;99.90;;;;;;4136094;28;20291;-73
2022/08/30 00:05:48;;;;;;;4.70;2.87;;;17.10;99.90;;;;;;4135842;28;20302;-74
2022/08/30 00:07:50;;;;;;;4.40;3.00;;;17.10;99.90;;;;;;4137098;28;20212;-74
2022/08/30 00:09:52;;;;;;;5.77;2.70;;;17.10;99.90;;;;;;4125190;28;20256;-74
2022/08/30 00:11:54;;;;;;;5.50;3.00;;;17.10;99.90;;;;;;4133975;28;20258;-75
2022/08/30 00:13:58;;;;;;;4.30;3.07;;;17.00;99.90;;;;;;4119580;28;20209;-75
2022/08/30 00:16:00;;;;;;;4.93;3.10;;;17.00;99.90;;;;;;4120622;28;20251;-75
2022/08/30 00:18:02;;;;;;;4.40;2.87;;;17.00;99.90;;;;;;4138454;28;20210;-75
2022/08/30 00:20:06;;;;;;;3.33;2.87;;;17.00;99.90;;;;;;4136668;28;20200;-74
2022/08/30 00:22:08;;;;;;;3.93;3.07;;;17.00;99.90;;;;;;4134572;28;20216;-74
2022/08/30 00:24:10;;;;;;;4.17;2.93;;;16.90;99.90;;;;;;4136783;28;20222;-75
2022/08/30 00:26:12;;;;;;;3.80;2.80;;;16.90;99.90;;;;;;4136884;28;20231;-75
2022/08/30 00:28:15;;;;;;;4.57;3.03;;;16.90;99.90;;;;;;4137018;28;20225;-74
2022/08/30 00:30:20;;;;;;;5.03;3.20;;;16.90;99.90;;;;;;4134427;28;20278;-75
2022/08/30 00:32:22;;;;;;;4.63;3.20;;;16.90;99.90;;;;;;4138703;28;20689;-75
2022/08/30 00:34:24;;;;;;;4.17;2.97;;;16.90;99.90;;;;;;4136749;28;20220;-73
2022/08/30 00:36:26;;;;;;;3.67;2.60;;;16.90;99.90;;;;;;4135503;28;20231;-73
2022/08/30 00:38:28;;;;;;;5.77;3.70;;;16.90;99.90;;;;;;4136382;28;20219;-75
2022/08/30 00:40:30;;;;;;;8.33;3.67;;;16.90;99.90;;;;;;4134790;28;20208;-75
2022/08/30 00:42:33;;;;;;;5.33;3.50;;;17.00;99.90;;;;;;4133340;28;20300;-74
2022/08/30 00:44:35;;;;;;;6.80;3.90;;;17.00;99.90;;;;;;4138600;28;20765;-75
2022/08/30 00:46:38;;;;;;;4.73;3.33;;;17.00;99.90;;;;;;4136633;28;20773;-74
2022/08/30 00:48:44;;;;;;;6.37;3.50;;;17.00;99.90;;;;;;4138304;28;20218;-73
2022/08/30 00:50:49;;;;;;;6.13;3.50;;;17.00;99.90;;;;;;4134306;28;20646;-74
2022/08/30 00:52:55;;;;;;;5.30;3.40;;;17.00;99.90;;;;;;4135449;28;20612;-75
2022/08/30 00:54:57;;;;;;;5.47;3.60;;;17.00;99.90;;;;;;4137111;28;22021;-74
2022/08/30 00:56:59;;;;;;;4.27;3.17;;;17.00;99.90;;;;;;4135584;28;20231;-75
2022/08/30 00:59:04;;;;;;;5.47;3.00;;;17.00;99.90;;;;;;4135799;28;20219;-74
2022/08/30 01:01:07;;;;;;;6.07;3.57;;;16.90;99.90;;;;;;4136259;28;20637;-75
2022/08/30 01:03:11;;;;;;;3.83;3.00;;;16.90;99.90;;;;;;4135812;28;20216;-75
2022/08/30 01:05:13;;;;;;;5.80;3.30;;;16.90;99.90;;;;;;4136481;28;20295;-75
2022/08/30 01:07:15;;;;;;;5.57;3.70;;;16.90;99.90;;;;;;4134957;28;20849;-74
2022/08/30 01:09:17;;;;;;;5.10;3.63;;;16.90;99.90;;;;;;4138857;28;20310;-74
2022/08/30 01:11:23;;;;;;;6.27;3.80;;;16.80;99.90;;;;;;4133128;28;20283;-75
2022/08/30 01:13:26;;;;;;;6.83;3.80;;;16.80;99.90;;;;;;4115957;28;20204;-74
2022/08/30 01:15:29;;;;;;;5.57;3.63;;;16.80;99.90;;;;;;4137064;28;20196;-75
2022/08/30 01:17:31;;;;;;;5.90;4.00;;;16.80;99.90;;;;;;4138307;28;20237;-75
2022/08/30 01:19:40;;;;;;;6.50;3.87;;;16.70;99.90;;;;;;4120485;28;20208;-74
2022/08/30 01:21:47;;;;;;;5.20;3.87;;;16.70;99.90;;;;;;4128144;28;20332;-75
2022/08/30 01:23:53;;;;;;;6.23;3.50;;;16.70;99.90;;;;;;4126942;28;20208;-76
2022/08/30 01:25:55;;;;;;;4.80;3.67;;;16.70;99.90;;;;;;4135851;28;20220;-74
2022/08/30 01:28:01;;;;;;;4.97;3.70;;;16.60;99.90;;;;;;4146518;28;20207;-74
2022/08/30 01:30:03;;;;;;;6.20;4.00;;;16.70;99.90;;;;;;4152623;28;20279;-74
2022/08/30 01:32:06;;;;;;;5.60;3.93;;;16.70;99.90;;;;;;4154124;28;20235;-72
2022/08/30 01:34:08;;;;;;;4.73;3.60;;;16.60;99.90;;;;;;4139200;28;20205;-72
2022/08/30 01:36:13;;;;;;;6.40;3.70;;;16.60;99.90;;;;;;4159257;28;20220;-73
2022/08/30 01:38:17;;;;;;;4.83;3.57;;;16.60;99.90;;;;;;4159269;28;20239;-72
2022/08/30 01:40:20;;;;;;;5.30;3.53;;;16.60;99.90;;;;;;4144491;28;20319;-73
2022/08/30 01:42:23;;;;;;;5.67;3.53;;;16.60;99.90;;;;;;4120411;28;20208;-75
2022/08/30 01:44:25;;;;;;;5.67;3.70;;;16.60;99.90;;;;;;4139169;28;20203;-75
2022/08/30 01:46:31;;;;;;;5.10;3.37;;;16.60;99.90;;;;;;4134667;28;20359;-73
2022/08/30 01:48:33;;;;;;;5.33;3.43;;;16.60;99.90;;;;;;4137710;28;20728;-73
2022/08/30 01:50:35;;;;;;;6.00;3.77;;;16.60;99.90;;;;;;4138672;28;20274;-74
2022/08/30 01:52:37;;;;;;;6.33;3.90;;;16.60;99.90;;;;;;4137638;28;20212;-75
2022/08/30 01:54:42;;;;;;;4.70;3.30;;;16.60;99.90;;;;;;4137777;28;20205;-73
2022/08/30 01:56:45;;;;;;;4.03;3.07;;;16.60;99.90;;;;;;4136008;28;20321;-74
2022/08/30 01:58:48;;;;;;;4.97;3.20;;;16.60;99.90;;;;;;4134694;28;20901;-73
2022/08/30 02:00:50;;;;;;;4.70;3.17;;;16.50;99.90;;;;;;4138763;28;20204;-74
2022/08/30 02:02:52;;;;;;;4.23;3.57;;;16.60;99.90;;;;;;4140139;28;20243;-74
2022/08/30 02:04:55;;;;;;;5.47;3.53;;;16.50;99.90;;;;;;4137654;28;20616;-75
2022/08/30 02:06:56;;;;;;;4.60;3.37;;;16.50;99.90;;;;;;4139325;28;20241;-73
2022/08/30 02:08:59;;;;;;;4.33;3.27;;;16.50;99.90;;;;;;4119616;28;20213;-75
2022/08/30 02:11:01;;;;;;;3.90;3.40;;;16.50;99.90;;;;;;4135314;28;20235;-74
2022/08/30 02:13:04;;;;;;;5.03;3.40;;;16.50;99.90;;;;;;4135482;28;20290;-74
2022/08/30 02:15:08;;;;;;;4.77;3.37;;;16.40;99.90;;;;;;4135990;28;20216;-74
2022/08/30 02:17:12;;;;;;;4.37;3.40;;;16.40;99.90;;;;;;4131711;28;20949;-74
2022/08/30 02:19:14;;;;;;;4.27;3.17;;;16.40;99.90;;;;;;4135528;28;20511;-73
2022/08/30 02:21:16;;;;;;;5.17;3.73;;;16.40;99.90;;;;;;4136038;28;20235;-73
2022/08/30 02:23:18;;;;;;;4.60;3.10;;;16.40;99.90;;;;;;4134600;28;20213;-74
2022/08/30 02:25:20;;;;;;;4.17;3.10;;;16.30;99.90;;;;;;4118644;28;20208;-75
2022/08/30 02:27:22;;;;;;;5.57;3.47;;;16.30;99.90;;;;;;4132131;28;20294;-74
2022/08/30 02:29:26;;;;;;;6.23;3.90;;;16.30;99.90;;;;;;4138065;28;20210;-74
2022/08/30 02:31:28;;;;;;;4.80;3.17;;;16.30;99.90;;;;;;4132544;28;20299;-75
2022/08/30 02:33:30;;;;;;;6.87;3.53;;;16.30;99.90;;;;;;4136650;28;20218;-75
2022/08/30 02:35:32;;;;;;;4.43;3.30;;;16.20;99.90;;;;;;4115805;28;20293;-75
2022/08/30 02:37:34;;;;;;;4.97;3.47;;;16.20;99.90;;;;;;4133564;28;20215;-76
2022/08/30 02:39:36;;;;;;;4.47;3.33;;;16.20;99.90;;;;;;4120325;28;20582;-74
2022/08/30 02:41:38;;;;;;;5.03;3.40;;;16.20;99.90;;;;;;4128714;28;20210;-75
2022/08/30 02:43:40;;;;;;;5.90;3.77;;;16.20;99.90;;;;;;4138963;28;20682;-75
2022/08/30 02:45:43;;;;;;;5.20;3.63;;;16.20;99.90;;;;;;4137263;28;20234;-75
2022/08/30 02:47:45;;;;;;;6.23;3.90;;;16.20;99.90;;;;;;4138370;28;20216;-74
2022/08/30 02:49:47;;;;;;;4.33;3.17;;;16.10;99.90;;;;;;4136705;28;20259;-74
2022/08/30 02:51:49;;;;;;;4.90;3.47;;;16.00;99.90;;;;;;4139454;28;20227;-75
2022/08/30 02:53:51;;;;;;;5.20;3.57;;;16.10;99.90;;;;;;4122350;28;20243;-75
2022/08/30 02:55:53;;;;;;;4.73;3.27;;;16.10;99.90;;;;;;4138203;28;20768;-74
2022/08/30 02:57:54;;;;;;;5.43;3.67;;;16.00;99.90;;;;;;4140511;28;20747;-75
2022/08/30 02:59:57;;;;;;;6.20;3.80;;;16.00;99.90;;;;;;4144234;28;20245;-73
2022/08/30 03:02:00;;;;;;;5.20;3.90;;;16.00;99.90;;;;;;4141146;28;20238;-75
2022/08/30 03:04:02;;;;;;;4.67;3.60;;;16.00;99.90;;;;;;4141335;28;20307;-76
2022/08/30 03:06:04;;;;;;;4.40;3.40;;;16.00;99.90;;;;;;4139742;28;20767;-74
2022/08/30 03:08:07;;;;;;;4.40;3.33;;;16.00;99.90;;;;;;4131976;28;20207;-74
2022/08/30 03:10:10;;;;;;;4.43;3.33;;;16.00;99.90;;;;;;4140280;28;20678;-75
2022/08/30 03:12:12;;;;;;;4.60;3.43;;;15.90;99.90;;;;;;4121198;28;21066;-74
2022/08/30 03:14:14;;;;;;;4.77;3.47;;;15.90;99.90;;;;;;4139277;28;20298;-75
2022/08/30 03:16:16;;;;;;;4.87;3.40;;;15.90;99.90;;;;;;4134994;28;20878;-74
2022/08/30 03:18:20;;;;;;;4.83;3.53;;;15.90;99.90;;;;;;4136535;28;20246;-74
2022/08/30 03:20:23;;;;;;;5.93;3.90;;;15.80;99.90;;;;;;4118786;28;20205;-75
2022/08/30 03:22:25;;;;;;;5.07;3.63;;;15.80;99.90;;;;;;4136274;28;20562;-75
2022/08/30 03:24:27;;;;;;;5.00;3.57;;;15.80;99.90;;;;;;4134957;28;20289;-75
2022/08/30 03:26:29;;;;;;;5.20;3.73;;;15.80;99.90;;;;;;4140509;28;20798;-75
2022/08/30 03:28:31;;;;;;;6.73;3.70;;;15.70;99.90;;;;;;4139359;28;20299;-75
2022/08/30 03:30:33;;;;;;;6.30;4.00;;;15.70;99.90;;;;;;4136804;28;20308;-75
2022/08/30 03:32:35;;;;;;;5.13;3.87;;;15.70;99.90;;;;;;4140574;28;20575;-75
2022/08/30 03:34:39;;;;;;;5.03;3.83;;;15.60;99.90;;;;;;4137002;28;20218;-75
2022/08/30 03:36:41;;;;;;;5.80;4.27;;;15.60;99.90;;;;;;4137547;28;20324;-75
2022/08/30 03:38:42;;;;;;;6.63;4.20;;;15.60;99.90;;;;;;4138705;28;20207;-74
2022/08/30 03:40:44;;;;;;;5.90;3.93;;;15.50;99.90;;;;;;4137932;28;20248;-75
2022/08/30 03:42:47;;;;;;;6.00;4.33;;;15.50;99.90;;;;;;4122823;28;20615;-75
2022/08/30 03:44:49;;;;;;;7.70;4.40;;;15.50;99.90;;;;;;4138473;28;20220;-75
2022/08/30 03:46:51;;;;;;;7.50;4.10;;;15.50;99.90;;;;;;4136978;28;20314;-75
2022/08/30 03:48:54;;;;;;;6.87;4.60;;;15.50;99.90;;;;;;4138941;28;20225;-75
2022/08/30 03:50:58;;;;;;;5.97;4.00;;;15.40;99.90;;;;;;4133487;28;20260;-74
2022/08/30 03:53:00;;;;;;;6.57;4.23;;;15.40;99.90;;;;;;4127612;28;20219;-74
2022/08/30 03:55:02;;;;;;;6.90;4.23;;;15.40;99.90;;;;;;4119551;28;20673;-74
2022/08/30 03:57:05;;;;;;;7.20;4.23;;;15.30;99.90;;;;;;4136830;28;20313;-74
2022/08/30 03:59:07;;;;;;;6.40;3.90;;;15.30;99.90;;;;;;4137382;28;20836;-75
2022/08/30 04:01:09;;;;;;;6.80;4.10;;;15.30;99.90;;;;;;4142056;28;20203;-74
2022/08/30 04:03:11;;;;;;;5.73;4.20;;;15.30;99.90;;;;;;4141667;28;20208;-75
2022/08/30 04:05:13;;;;;;;7.57;4.37;;;15.30;99.90;;;;;;4136310;28;20328;-75
2022/08/30 04:07:17;;;;;;;7.47;4.40;;;15.20;99.90;;;;;;4126775;28;20691;-74
2022/08/30 04:09:20;;;;;;;6.37;4.43;;;15.20;99.90;;;;;;4152225;28;20225;-74
2022/08/30 04:11:21;;;;;;;6.97;4.03;;;15.10;99.90;;;;;;4148528;28;20259;-74
2022/08/30 04:13:24;;;;;;;5.67;3.90;;;15.10;99.90;;;;;;4154760;28;20219;-73
2022/08/30 04:15:26;;;;;;;4.90;3.80;;;15.10;99.90;;;;;;4150156;28;20296;-74
2022/08/30 04:17:28;;;;;;;6.63;4.23;;;15.10;99.90;;;;;;4150654;28;20290;-74
2022/08/30 04:19:30;;;;;;;5.27;3.80;;;15.10;99.90;;;;;;4147554;28;20692;-73
2022/08/30 04:21:32;;;;;;;5.47;3.83;;;15.10;99.90;;;;;;4149434;28;20200;-74
2022/08/30 04:23:35;;;;;;;6.17;4.17;;;15.00;99.90;;;;;;4147753;28;20455;-76
2022/08/30 04:25:38;;;;;;;5.80;4.20;;;15.00;99.90;;;;;;4138911;28;20325;-74
2022/08/30 04:27:40;;;;;;;5.27;3.73;;;15.00;99.90;;;;;;4137390;28;20215;-74
2022/08/30 04:29:42;;;;;;;6.40;4.03;;;15.00;99.90;;;;;;4135178;28;20209;-75
2022/08/30 04:31:44;;;;;;;5.40;4.00;;;14.90;99.90;;;;;;4135438;28;20304;-74
2022/08/30 04:33:46;;;;;;;6.77;4.03;;;14.90;99.90;;;;;;4132606;28;20220;-75
2022/08/30 04:35:49;;;;;;;7.03;4.03;;;14.90;99.90;;;;;;4137958;28;20666;-74
2022/08/30 04:37:51;;;;;;;6.30;4.17;;;14.90;99.90;;;;;;4135466;28;20675;-74
2022/08/30 04:39:59;;;;;;;8.77;4.17;;;14.90;99.90;;;;;;4134113;28;20588;-74
2022/08/30 04:42:02;;;;;;;6.77;4.40;;;14.80;99.90;;;;;;4137375;28;20588;-74
2022/08/30 04:44:04;;;;;;;7.17;4.63;;;14.80;99.90;;;;;;4138620;28;20821;-74
2022/08/30 04:46:07;;;;;;;7.40;5.13;;;14.80;99.90;;;;;;4137458;28;20225;-75
2022/08/30 04:48:09;;;;;;;7.03;4.47;;;14.80;99.90;;;;;;4138285;28;20283;-75
2022/08/30 04:50:14;;;;;;;6.53;4.67;;;14.80;99.90;;;;;;4136406;28;20219;-74
2022/08/30 04:52:16;;;;;;;6.47;4.33;;;14.80;99.90;;;;;;4140300;28;20640;-74
2022/08/30 04:54:18;;;;;;;6.13;4.20;;;14.80;99.90;;;;;;4137265;28;20245;-74
2022/08/30 04:56:23;;;;;;;5.93;4.37;;;14.80;99.90;;;;;;4136273;28;20233;-75
2022/08/30 04:58:25;;;;;;;6.27;4.13;;;14.80;99.90;;;;;;4136031;28;20218;-75
2022/08/30 05:00:27;;;;;;;5.33;4.00;;;14.70;99.90;;;;;;4137129;28;20283;-74
2022/08/30 05:02:29;;;;;;;7.57;4.37;;;14.70;99.90;;;;;;4133113;28;20315;-74
2022/08/30 05:04:31;;;;;;;7.27;5.00;;;14.70;99.90;;;;;;4136433;28;20287;-74
2022/08/30 05:06:33;;;;;;;8.93;5.10;;;14.70;99.90;;;;;;4135856;28;20232;-74
2022/08/30 05:08:35;;;;;;;9.07;5.67;;;14.70;99.90;;;;;;4136065;28;20229;-75
2022/08/30 05:10:39;;;;;;;7.40;5.23;;;14.70;99.90;;;;;;4135955;28;20220;-76
2022/08/30 05:12:43;;;;;;;6.83;5.13;;;14.60;99.90;;;;;;4139408;28;20615;-74
2022/08/30 05:14:44;;;;;;;7.60;5.40;;;14.60;99.90;;;;;;4118127;28;20205;-73
2022/08/30 05:16:46;;;;;;;9.00;5.67;;;14.60;99.90;;;;;;4135757;28;20320;-74
2022/08/30 05:18:50;;;;;;;6.73;4.60;;;14.60;99.90;;;;;;4120977;28;20261;-75
2022/08/30 05:21:04;;;;;;;8.13;5.57;;;14.60;99.90;;;;;;4135522;28;20309;-75
2022/08/30 05:23:06;;;;;;;7.47;5.40;;;14.60;99.90;;;;;;4141179;28;20231;-74
2022/08/30 05:25:09;;;;;;;8.47;5.50;;;14.60;99.90;;;;;;4134888;28;20240;-75
2022/08/30 05:27:10;;;;;;;7.27;5.10;;;14.60;99.90;;;;;;4140507;28;20229;-76
2022/08/30 05:29:14;;;;;;;7.70;5.23;;;14.60;99.90;;;;;;4137717;28;20308;-75
2022/08/30 05:31:18;;;;;;;8.27;5.50;;;14.60;99.90;;;;;;4119664;28;20331;-76
2022/08/30 05:33:19;;;;;;;9.83;6.27;;;14.60;99.90;;;;;;4138033;28;20291;-73
2022/08/30 05:35:22;;;;;;;8.07;5.43;;;14.60;99.90;;;;;;4138480;28;20287;-75
2022/08/30 05:37:23;;;;;;;8.80;5.80;;;14.70;99.90;;;;;;4133534;28;20643;-75
2022/08/30 05:39:25;;;;;;;8.33;6.03;;;14.70;99.90;;;;;;4136658;28;20214;-75
2022/08/30 05:41:27;;;;;;;9.40;5.80;;;14.70;99.90;;;;;;4139936;28;20204;-76
2022/08/30 05:43:29;;;;;;;8.33;5.70;;;14.70;99.90;;;;;;4137620;28;20286;-76
2022/08/30 05:45:32;;;;;;;8.83;5.47;;;14.70;99.90;;;;;;4134430;28;20741;-74
2022/08/30 05:47:34;;;;;;;7.80;5.13;;;14.70;99.90;;;;;;4133166;28;20209;-75
2022/08/30 05:49:36;;;;;;;8.57;5.77;;;14.70;99.90;;;;;;4118373;28;20728;-75
2022/08/30 05:51:38;;;;;;;8.20;5.60;;;14.70;99.90;;;;;;4139003;28;20216;-74
2022/08/30 05:53:40;;;;;;;8.40;5.33;;;14.70;99.90;;;;;;4137631;28;20217;-72
2022/08/30 05:55:42;;;;;;;7.33;4.93;;;14.70;99.90;;;;;;4137931;28;20323;-74
2022/08/30 05:57:44;;;;;;;6.97;5.30;;;14.70;99.90;;;;;;4134352;28;20239;-75
2022/08/30 05:59:46;;;;;;;7.70;5.47;;;14.70;99.90;;;;;;4136584;28;20215;-74
2022/08/30 06:01:50;;;;;;;7.63;5.20;;;14.60;99.90;;;;;;4135230;28;20224;-74
2022/08/30 06:03:52;;;;;;;7.47;5.30;;;14.60;99.90;;;;;;4137224;28;20213;-74
2022/08/30 06:05:54;;;;;;;7.77;5.40;;;14.70;99.90;;;;;;4118498;28;20331;-75
2022/08/30 06:07:56;;;;;;;8.70;5.77;;;14.70;99.90;;;;;;4116645;28;20667;-75
2022/08/30 06:09:58;;;;;;;7.83;5.37;;;14.70;99.90;;;;;;4136738;28;20666;-75
2022/08/30 06:12:00;;;;;;;7.30;5.20;;;14.70;99.90;;;;;;4136109;28;20325;-74
2022/08/30 06:14:03;;;;;;;7.93;5.23;;;14.70;99.90;;;;;;4139208;28;20291;-74
2022/08/30 06:16:05;;;;;;;7.73;5.10;;;14.70;99.90;;;;;;4142039;28;20231;-74
2022/08/30 06:18:08;;;;;;;7.73;5.40;;;14.70;99.90;;;;;;4127103;28;20295;-74
2022/08/30 06:20:11;;;;;;;7.33;4.97;;;14.70;99.90;;;;;;4141867;28;20210;-75
2022/08/30 06:22:13;;;;;;;7.80;5.47;;;14.80;99.90;;;;;;4141672;28;20247;-74
2022/08/30 06:24:15;;;;;;;8.63;5.87;;;14.80;99.90;;;;;;4139601;28;20201;-74
2022/08/30 06:26:18;;;;;;;10.33;5.87;;;14.80;99.90;;;;;;4136653;28;20234;-74
2022/08/30 06:28:19;;;;;;;7.97;5.37;;;14.80;99.90;;;;;;4140141;28;20255;-73
2022/08/30 06:30:21;;;;;;;10.37;6.07;;;14.90;99.90;;;;;;4139576;28;20234;-74
2022/08/30 06:32:23;;;;;;;7.83;5.07;;;14.90;99.90;;;;;;4126963;28;20261;-75
2022/08/30 06:34:27;;;;;;;8.37;5.87;;;14.90;99.90;;;;;;4144030;28;20325;-74
2022/08/30 06:36:28;;;;;;;9.97;6.17;;;15.00;99.90;;;;;;4141784;28;20241;-74
2022/08/30 06:38:31;;;;;;;9.23;6.33;;;15.00;99.90;;;;;;4144354;28;20295;-73
2022/08/30 06:40:32;;;;;;;7.97;5.50;;;15.00;99.90;;;;;;4143905;28;20209;-75
2022/08/30 06:42:34;;;;;;;7.07;5.43;;;15.00;99.90;;;;;;4142118;28;20232;-73
2022/08/30 06:44:36;;;;;;;11.50;7.37;;;15.10;99.90;;;;;;4138870;28;20590;-75
2022/08/30 06:46:39;;;;;;;9.40;6.17;;;15.10;99.90;;;;;;4144749;28;20232;-75
2022/08/30 06:48:41;;;;;;;10.13;6.43;;;15.10;99.90;;;;;;4130399;28;20209;-76
2022/08/30 06:50:44;;;;;;;11.50;8.10;;;15.20;99.90;;;;;;4125809;28;20743;-75
2022/08/30 06:52:46;;;;;;;11.27;7.23;;;15.20;99.90;;;;;;4133370;28;20630;-75
2022/08/30 06:54:49;;;;;;;9.77;7.30;;;15.30;99.90;;;;;;4151700;28;20289;-75
2022/08/30 06:56:51;;;;;;;12.33;7.70;;;15.30;99.90;;;;;;4135848;28;20225;-77
2022/08/30 06:58:53;;;;;;;14.37;8.60;;;15.40;99.90;;;;;;4151304;28;20242;-76
2022/08/30 07:00:55;;;;;;;11.30;7.73;;;15.40;99.90;;;;;;4150671;28;20229;-77
2022/08/30 07:02:57;;;;;;;13.17;8.00;;;15.50;99.90;;;;;;4146336;28;20202;-76
2022/08/30 07:05:01;;;;;;;16.07;9.23;;;15.50;99.90;;;;;;4148462;28;20226;-75
2022/08/30 07:07:04;;;;;;;12.07;7.33;;;15.50;99.90;;;;;;4130821;28;20264;-76
2022/08/30 07:09:06;;;;;;;21.77;10.20;;;15.60;99.90;;;;;;4146121;28;20210;-74
2022/08/30 07:11:08;;;;;;;19.33;10.27;;;15.70;99.90;;;;;;4145400;28;20570;-75
2022/08/30 07:13:11;;;;;;;19.27;10.23;;;15.70;99.90;;;;;;4143463;28;20202;-76
2022/08/30 07:15:13;;;;;;;16.53;9.00;;;15.70;99.90;;;;;;4146832;28;20215;-76
2022/08/30 07:19:34;;;;;;;14.27;8.50;;;15.90;99.90;;;;;;4130468;28;20204;-75
2022/08/30 07:21:38;;;;;;;14.03;8.40;;;15.90;99.90;;;;;;4143773;28;20207;-75
2022/08/30 07:23:43;;;;;;;11.57;7.27;;;16.00;99.90;;;;;;4143909;28;20214;-76
2022/08/30 07:25:45;;;;;;;14.33;8.70;;;16.00;99.90;;;;;;4140121;28;20761;-75
2022/08/30 07:27:49;;;;;;;13.73;8.07;;;16.10;99.90;;;;;;4138421;28;20215;-76
2022/08/30 07:29:50;;;;;;;11.10;7.10;;;16.10;99.90;;;;;;4143728;28;20207;-76
2022/08/30 07:31:52;;;;;;;10.43;6.97;;;16.20;99.90;;;;;;4143133;28;20685;-76
2022/08/30 07:33:55;;;;;;;10.10;6.70;;;16.30;99.90;;;;;;4141591;28;20231;-76
2022/08/30 07:35:57;;;;;;;9.27;6.50;;;16.30;99.90;;;;;;4125086;28;20320;-77
2022/08/30 07:38:00;;;;;;;10.50;6.13;;;16.40;99.90;;;;;;4142495;28;20265;-75
2022/08/30 07:40:04;;;;;;;10.10;6.30;;;16.40;99.90;;;;;;4140536;28;20699;-77
2022/08/30 07:42:06;;;;;;;9.80;6.50;;;16.50;99.90;;;;;;4125859;28;20316;-76
2022/08/30 07:44:09;;;;;;;10.30;5.73;;;16.60;99.90;;;;;;4127275;28;20216;-76
2022/08/30 07:46:11;;;;;;;7.63;5.50;;;16.60;99.90;;;;;;4138844;28;20232;-77
2022/08/30 07:48:12;;;;;;;7.97;5.50;;;16.70;99.90;;;;;;4141013;28;20259;-77
2022/08/30 07:50:14;;;;;;;9.50;5.70;;;16.80;99.90;;;;;;4124525;28;20817;-77
2022/08/30 07:52:16;;;;;;;8.17;5.83;;;16.90;99.90;;;;;;4141495;28;20232;-77
2022/08/30 07:54:18;;;;;;;8.60;5.97;;;16.90;99.90;;;;;;4144531;28;20295;-77
2022/08/30 07:56:22;;;;;;;8.57;5.80;;;17.00;99.90;;;;;;4123949;28;20225;-77
2022/08/30 07:58:23;;;;;;;8.53;6.20;;;17.10;99.90;;;;;;4143631;28;20213;-77
2022/08/30 08:00:25;;;;;;;9.17;6.80;;;17.20;99.90;;;;;;4144249;28;20284;-76
2022/08/30 08:02:27;;;;;;;11.33;6.63;;;17.20;99.90;;;;;;4141852;28;20946;-76
2022/08/30 08:04:30;;;;;;;12.70;8.20;;;17.30;99.90;;;;;;4139976;28;20296;-77
2022/08/30 08:06:32;;;;;;;10.57;6.73;;;17.40;99.90;;;;;;4139088;28;20315;-76
2022/08/30 08:08:35;;;;;;;9.37;6.90;;;17.40;99.90;;;;;;4137794;28;20209;-76
2022/08/30 08:10:38;;;;;;;9.30;5.90;;;17.50;99.90;;;;;;4134080;28;20293;-75
2022/08/30 08:12:41;;;;;;;9.70;6.27;;;17.50;99.90;;;;;;4124337;28;20959;-76
2022/08/30 08:14:43;;;;;;;9.57;5.77;;;17.60;99.90;;;;;;4138584;28;20283;-76
2022/08/30 08:16:45;;;;;;;11.53;6.50;;;17.60;99.90;;;;;;4145738;28;20283;-75
2022/08/30 08:18:47;;;;;;;8.30;6.13;;;17.70;99.90;;;;;;4141145;28;20882;-77
2022/08/30 08:20:49;;;;;;;7.70;5.17;;;17.70;99.90;;;;;;4145066;28;20300;-76
2022/08/30 08:22:51;;;;;;;7.63;5.03;;;17.80;99.90;;;;;;4142753;28;20219;-76
2022/08/30 08:24:53;;;;;;;7.20;4.97;;;17.80;99.90;;;;;;4123586;28;20293;-75
2022/08/30 08:26:56;;;;;;;7.20;5.10;;;17.80;99.90;;;;;;4138104;28;20240;-76
2022/08/30 08:28:59;;;;;;;6.33;4.80;;;17.90;99.90;;;;;;4138957;28;20205;-75
2022/08/30 08:31:01;;;;;;;8.57;5.20;;;18.00;99.90;;;;;;4140537;28;20235;-76
2022/08/30 08:33:04;;;;;;;8.30;5.27;;;18.00;99.90;;;;;;4138977;28;20864;-76
2022/08/30 08:35:06;;;;;;;8.27;5.13;;;18.10;99.90;;;;;;4141391;28;20226;-76
2022/08/30 08:37:08;;;;;;;7.17;4.90;;;18.10;99.90;;;;;;4141132;28;20599;-77
2022/08/30 08:39:11;;;;;;;7.33;5.03;;;18.20;99.90;;;;;;4141757;28;20236;-77
2022/08/30 08:41:26;;;;;;;7.17;4.57;;;18.20;99.90;;;;;;4142663;28;20216;-76
2022/08/30 08:43:33;;;;;;;7.73;4.70;;;18.30;99.90;;;;;;4139755;28;20200;-76
2022/08/30 08:45:46;;;;;;;5.37;4.27;;;18.40;99.90;;;;;;4125908;28;20235;-76
2022/08/30 08:47:57;;;;;;;6.73;4.40;;;18.40;99.90;;;;;;4141472;28;20208;-77
2022/08/30 08:50:02;;;;;;;5.70;3.80;;;18.50;99.90;;;;;;4137092;28;20204;-77
2022/08/30 08:54:32;;;;;;;6.07;3.80;;;18.60;99.90;;;;;;4135035;28;20204;-78
2022/08/30 08:56:35;;;;;;;5.17;3.57;;;18.70;99.90;;;;;;4140211;28;20258;-76
2022/08/30 08:58:43;;;;;;;5.27;3.60;;;18.70;99.90;;;;;;4139316;28;20202;-75
2022/08/30 09:00:46;;;;;;;4.87;3.67;;;18.80;99.90;;;;;;4139649;28;20242;-74
2022/08/30 09:02:53;;;;;;;3.80;3.17;;;18.90;99.90;;;;;;4123191;28;21053;-75
2022/08/30 09:04:59;;;;;;;6.10;3.50;;;18.90;99.90;;;;;;4130309;28;20214;-75
2022/08/30 09:07:04;;;;;;;4.83;3.60;;;19.00;99.90;;;;;;4141597;28;20230;-76
2022/08/30 09:09:07;;;;;;;4.97;3.10;;;19.00;99.90;;;;;;4140724;28;20613;-75
2022/08/30 09:11:15;;;;;;;4.47;3.10;;;19.10;99.90;;;;;;4142609;28;20209;-76
2022/08/30 09:13:17;;;;;;;3.93;3.00;;;19.10;99.90;;;;;;4127514;28;20235;-75
2022/08/30 09:15:22;;;;;;;4.20;3.10;;;19.20;99.90;;;;;;4144845;28;20305;-75
2022/08/30 09:17:25;;;;;;;4.67;3.07;;;19.20;99.90;;;;;;4142345;28;20214;-78
2022/08/30 09:19:34;;;;;;;5.90;3.17;;;19.30;99.90;;;;;;4123248;28;20669;-76
2022/08/30 09:21:36;;;;;;;5.50;3.10;;;19.40;99.90;;;;;;4138249;28;20215;-76
2022/08/30 09:23:48;;;;;;;4.27;3.07;;;19.40;99.90;;;;;;4136632;28;20223;-76
2022/08/30 09:25:52;;;;;;;5.00;2.80;;;19.40;99.90;;;;;;4120926;28;20232;-77
2022/08/30 09:28:07;;;;;;;3.60;2.57;;;19.50;99.90;;;;;;4141411;28;20288;-75
2022/08/30 09:30:14;;;;;;;3.70;2.80;;;19.60;99.90;;;;;;4140990;28;20211;-76
2022/08/30 09:32:26;;;;;;;4.13;2.77;;;19.70;99.90;;;;;;4118773;28;20228;-77
2022/08/30 09:34:33;;;;;;;3.47;2.63;;;19.80;99.90;;;;;;4146757;28;20210;-76
2022/08/30 09:36:40;;;;;;;3.67;2.60;;;19.80;99.90;;;;;;4150716;28;20231;-76
2022/08/30 09:38:44;;;;;;;4.00;2.90;;;19.90;99.90;;;;;;4145109;28;20309;-76
2022/08/30 09:40:47;;;;;;;5.80;3.67;;;20.00;99.90;;;;;;4139897;28;20486;-75
2022/08/30 09:43:02;;;;;;;6.60;3.43;;;20.10;99.90;;;;;;4141692;28;20225;-76
2022/08/30 09:45:10;;;;;;;6.23;3.63;;;20.20;99.90;;;;;;4136256;28;20335;-75
2022/08/30 09:47:20;;;;;;;5.30;4.00;;;20.30;99.90;;;;;;4139367;28;20254;-76
2022/08/30 09:49:31;;;;;;;6.83;4.10;;;20.40;99.90;;;;;;4142003;28;20294;-76
2022/08/30 09:51:45;;;;;;;6.93;3.93;;;20.50;99.90;;;;;;4138529;28;20242;-76
2022/08/30 09:53:56;;;;;;;5.37;3.70;;;20.60;99.90;;;;;;4138298;28;20303;-77
2022/08/30 09:56:07;;;;;;;5.97;3.73;;;20.60;99.90;;;;;;4118619;28;20307;-76
2022/08/30 09:58:17;;;;;;;7.50;4.17;;;20.70;99.90;;;;;;4133828;28;20684;-73
2022/08/30 10:00:22;;;;;;;7.67;4.27;;;20.80;99.90;;;;;;4133723;28;20246;-73
2022/08/30 10:02:41;;;;;;;8.20;4.70;;;20.90;99.90;;;;;;4136185;28;20256;-74
2022/08/30 10:04:54;;;;;;;7.67;4.33;;;21.00;99.90;;;;;;4138309;28;20283;-75
2022/08/30 10:07:06;;;;;;;6.30;4.50;;;21.10;99.90;;;;;;4140661;28;20238;-75
2022/08/30 10:09:17;;;;;;;8.07;4.60;;;21.20;99.90;;;;;;4142901;28;20218;-73
2022/08/30 10:11:27;;;;;;;5.33;4.20;;;21.30;99.90;;;;;;4131779;28;20343;-76
2022/08/30 10:13:58;;;;;;;5.20;3.93;;;21.40;99.90;;;;;;4121024;28;20224;-73
2022/08/30 10:16:09;;;;;;;5.07;4.10;;;21.50;99.90;;;;;;4140264;28;20227;-73
2022/08/30 10:18:19;;;;;;;5.17;3.80;;;21.50;99.90;;;;;;4138457;28;20244;-73
2022/08/30 10:20:29;;;;;;;5.90;3.60;;;21.60;99.90;;;;;;4127100;28;20309;-72
2022/08/30 10:22:36;;;;;;;6.27;3.67;;;21.70;99.90;;;;;;4132409;28;20217;-74
2022/08/30 10:24:43;;;;;;;5.90;3.73;;;21.80;99.90;;;;;;4138049;28;20218;-73
2022/08/30 10:26:50;;;;;;;4.83;3.20;;;21.90;99.90;;;;;;4139190;28;20248;-72
2022/08/30 10:28:58;;;;;;;4.73;3.33;;;22.00;99.90;;;;;;4142975;28;20292;-71
2022/08/30 10:31:03;;;;;;;3.80;3.07;;;22.00;99.90;;;;;;4137169;28;20211;-71
2022/08/30 10:33:10;;;;;;;6.43;3.90;;;22.10;99.90;;;;;;4137606;28;20217;-72
2022/08/30 10:35:15;;;;;;;5.67;3.60;;;22.20;99.90;;;;;;4138196;28;20291;-72
2022/08/30 10:37:23;;;;;;;4.03;3.40;;;22.20;99.90;;;;;;4135669;28;20305;-71
2022/08/30 10:39:31;;;;;;;6.07;3.47;;;22.30;99.90;;;;;;4118300;28;20219;-71
2022/08/30 10:41:37;;;;;;;4.83;3.30;;;22.30;99.90;;;;;;4136724;28;20218;-72
2022/08/30 10:43:47;;;;;;;4.17;3.10;;;22.40;99.90;;;;;;4132769;28;20214;-73
2022/08/30 10:45:52;;;;;;;4.50;2.90;;;22.40;99.90;;;;;;4134028;28;20269;-74
2022/08/30 10:48:00;;;;;;;4.77;3.20;;;22.50;99.90;;;;;;4134038;28;20243;-73